sensor_id;sensor_type;location;lat;lon;timestamp;pressure;altitude;pressure_sealevel;temperature;humidity
36598;BME280;22607;49.550;11.940;2022-12-17T00:00:10;96953.97;;;-2.78;93.72
36598;BME280;22607;49.550;11.940;2022-12-17T00:05:56;96955.44;;;-2.74;92.71
36598;BME280;22607;49.550;11.940;2022-12-17T00:08:41;96964.16;;;-2.77;94.13
36598;BME280;22607;49.550;11.940;2022-12-17T00:11:26;96970.09;;;-2.91;95.33
36598;BME280;22607;49.550;11.940;2022-12-17T00:14:11;96975.13;;;-2.73;95.01
36598;BME280;22607;49.550;11.940;2022-12-17T00:17:03;96976.88;;;-2.90;95.65
36598;BME280;22607;49.550;11.940;2022-12-17T00:19:48;96978.63;;;-2.90;95.47
36598;BME280;22607;49.550;11.940;2022-12-17T00:22:47;96982.84;;;-2.73;93.79
36598;BME280;22607;49.550;11.940;2022-12-17T00:25:32;96986.16;;;-2.71;94.11
36598;BME280;22607;49.550;11.940;2022-12-17T00:28:18;96983.53;;;-2.85;96.09
36598;BME280;22607;49.550;11.940;2022-12-17T00:31:03;96994.03;;;-2.90;95.00
36598;BME280;22607;49.550;11.940;2022-12-17T00:33:48;96987.00;;;-3.19;96.17
36598;BME280;22607;49.550;11.940;2022-12-17T00:36:33;96996.13;;;-3.29;96.82
36598;BME280;22607;49.550;11.940;2022-12-17T00:39:20;96995.16;;;-3.10;96.33
36598;BME280;22607;49.550;11.940;2022-12-17T00:42:05;97005.59;;;-2.97;97.16
36598;BME280;22607;49.550;11.940;2022-12-17T00:44:50;96999.59;;;-2.98;95.99
36598;BME280;22607;49.550;11.940;2022-12-17T00:47:35;97005.38;;;-2.78;93.76
36598;BME280;22607;49.550;11.940;2022-12-17T00:50:36;97005.56;;;-2.81;95.58
36598;BME280;22607;49.550;11.940;2022-12-17T00:53:21;97013.03;;;-2.77;94.70
36598;BME280;22607;49.550;11.940;2022-12-17T00:56:07;97010.16;;;-2.86;95.65
36598;BME280;22607;49.550;11.940;2022-12-17T00:58:52;97016.59;;;-2.95;96.71
36598;BME280;22607;49.550;11.940;2022-12-17T01:01:37;97008.16;;;-2.81;95.66
36598;BME280;22607;49.550;11.940;2022-12-17T01:04:22;97015.28;;;-2.70;94.01
36598;BME280;22607;49.550;11.940;2022-12-17T01:07:24;97024.97;;;-2.75;94.17
36598;BME280;22607;49.550;11.940;2022-12-17T01:13:18;97024.22;;;-2.94;96.37
36598;BME280;22607;49.550;11.940;2022-12-17T01:16:04;97030.44;;;-3.14;95.75
36598;BME280;22607;49.550;11.940;2022-12-17T01:18:50;97038.56;;;-2.90;95.03
36598;BME280;22607;49.550;11.940;2022-12-17T01:21:36;97045.22;;;-2.85;95.65
36598;BME280;22607;49.550;11.940;2022-12-17T01:24:21;97058.06;;;-2.85;95.23
36598;BME280;22607;49.550;11.940;2022-12-17T01:27:07;97059.38;;;-2.94;96.46
36598;BME280;22607;49.550;11.940;2022-12-17T01:29:52;97061.38;;;-2.99;94.38
36598;BME280;22607;49.550;11.940;2022-12-17T01:32:37;97067.47;;;-3.18;95.18
36598;BME280;22607;49.550;11.940;2022-12-17T01:35:22;97069.50;;;-2.91;93.67
36598;BME280;22607;49.550;11.940;2022-12-17T01:38:14;97067.94;;;-2.94;92.95
36598;BME280;22607;49.550;11.940;2022-12-17T01:47:09;97081.69;;;-2.95;92.31
36598;BME280;22607;49.550;11.940;2022-12-17T01:49:54;97081.19;;;-3.01;94.49
36598;BME280;22607;49.550;11.940;2022-12-17T01:55:48;97093.88;;;-2.98;94.93
36598;BME280;22607;49.550;11.940;2022-12-17T01:58:41;97100.41;;;-3.09;97.46
36598;BME280;22607;49.550;11.940;2022-12-17T02:01:33;97108.06;;;-3.25;99.42
36598;BME280;22607;49.550;11.940;2022-12-17T02:04:19;97106.84;;;-3.18;98.81
36598;BME280;22607;49.550;11.940;2022-12-17T02:07:14;97108.03;;;-3.07;98.48
36598;BME280;22607;49.550;11.940;2022-12-17T02:13:03;97100.03;;;-3.01;95.82
36598;BME280;22607;49.550;11.940;2022-12-17T02:16:30;97099.84;;;-2.98;95.52
36598;BME280;22607;49.550;11.940;2022-12-17T02:22:24;97106.06;;;-3.02;94.76
36598;BME280;22607;49.550;11.940;2022-12-17T02:25:15;97101.69;;;-3.00;94.65
36598;BME280;22607;49.550;11.940;2022-12-17T02:31:09;97106.19;;;-3.21;90.18
36598;BME280;22607;49.550;11.940;2022-12-17T02:33:54;97101.25;;;-3.08;90.22
36598;BME280;22607;49.550;11.940;2022-12-17T02:39:28;97114.97;;;-3.25;90.31
36598;BME280;22607;49.550;11.940;2022-12-17T02:42:14;97112.22;;;-3.22;91.82
36598;BME280;22607;49.550;11.940;2022-12-17T02:45:00;97116.69;;;-3.26;93.23
36598;BME280;22607;49.550;11.940;2022-12-17T02:47:46;97123.00;;;-3.16;91.85
36598;BME280;22607;49.550;11.940;2022-12-17T02:50:31;97126.44;;;-3.15;91.86
36598;BME280;22607;49.550;11.940;2022-12-17T02:53:27;97131.56;;;-3.15;92.86
36598;BME280;22607;49.550;11.940;2022-12-17T02:56:13;97137.38;;;-3.11;92.80
36598;BME280;22607;49.550;11.940;2022-12-17T03:02:42;97134.53;;;-3.23;93.75
36598;BME280;22607;49.550;11.940;2022-12-17T03:05:27;97144.34;;;-3.13;93.51
36598;BME280;22607;49.550;11.940;2022-12-17T03:08:12;97153.25;;;-3.21;94.68
36598;BME280;22607;49.550;11.940;2022-12-17T03:10:58;97152.63;;;-3.08;94.77
36598;BME280;22607;49.550;11.940;2022-12-17T03:16:47;97164.31;;;-3.36;97.41
36598;BME280;22607;49.550;11.940;2022-12-17T03:19:32;97169.44;;;-3.19;95.32
36598;BME280;22607;49.550;11.940;2022-12-17T03:25:07;97170.19;;;-3.17;94.28
36598;BME280;22607;49.550;11.940;2022-12-17T03:27:55;97173.81;;;-3.21;94.12
36598;BME280;22607;49.550;11.940;2022-12-17T03:30:40;97178.69;;;-3.32;95.27
36598;BME280;22607;49.550;11.940;2022-12-17T03:33:31;97181.09;;;-3.29;95.36
36598;BME280;22607;49.550;11.940;2022-12-17T03:36:16;97172.94;;;-3.20;94.39
36598;BME280;22607;49.550;11.940;2022-12-17T03:39:02;97181.31;;;-3.16;94.60
36598;BME280;22607;49.550;11.940;2022-12-17T03:41:47;97184.84;;;-3.19;94.32
36598;BME280;22607;49.550;11.940;2022-12-17T03:44:40;97190.69;;;-3.33;95.82
36598;BME280;22607;49.550;11.940;2022-12-17T03:47:26;97194.53;;;-3.24;92.86
36598;BME280;22607;49.550;11.940;2022-12-17T03:50:16;97196.44;;;-3.45;95.46
36598;BME280;22607;49.550;11.940;2022-12-17T03:53:02;97195.53;;;-3.44;94.79
36598;BME280;22607;49.550;11.940;2022-12-17T03:55:48;97204.22;;;-3.47;95.08
36598;BME280;22607;49.550;11.940;2022-12-17T03:58:33;97200.81;;;-3.47;94.95
36598;BME280;22607;49.550;11.940;2022-12-17T04:01:19;97199.38;;;-3.53;94.96
36598;BME280;22607;49.550;11.940;2022-12-17T04:04:04;97198.84;;;-3.42;93.58
36598;BME280;22607;49.550;11.940;2022-12-17T04:06:49;97203.00;;;-3.57;95.30
36598;BME280;22607;49.550;11.940;2022-12-17T04:09:34;97206.31;;;-3.55;93.99
36598;BME280;22607;49.550;11.940;2022-12-17T04:12:19;97210.72;;;-3.57;94.91
36598;BME280;22607;49.550;11.940;2022-12-17T04:15:04;97212.66;;;-3.62;95.45
36598;BME280;22607;49.550;11.940;2022-12-17T04:17:50;97210.16;;;-3.46;92.56
36598;BME280;22607;49.550;11.940;2022-12-17T04:20:35;97210.34;;;-3.49;93.69
36598;BME280;22607;49.550;11.940;2022-12-17T04:23:20;97217.00;;;-3.45;93.16
36598;BME280;22607;49.550;11.940;2022-12-17T04:26:05;97216.22;;;-3.47;92.09
36598;BME280;22607;49.550;11.940;2022-12-17T04:28:50;97220.75;;;-3.52;92.60
36598;BME280;22607;49.550;11.940;2022-12-17T04:31:36;97220.59;;;-3.49;92.91
36598;BME280;22607;49.550;11.940;2022-12-17T04:34:21;97216.16;;;-3.46;92.86
36598;BME280;22607;49.550;11.940;2022-12-17T04:37:06;97220.44;;;-3.64;95.27
36598;BME280;22607;49.550;11.940;2022-12-17T04:39:51;97234.88;;;-3.61;94.83
36598;BME280;22607;49.550;11.940;2022-12-17T04:42:37;97238.31;;;-3.62;94.77
36598;BME280;22607;49.550;11.940;2022-12-17T04:45:22;97242.19;;;-3.71;95.96
36598;BME280;22607;49.550;11.940;2022-12-17T04:48:11;97243.13;;;-3.54;94.31
36598;BME280;22607;49.550;11.940;2022-12-17T04:50:56;97247.84;;;-3.64;94.56
36598;BME280;22607;49.550;11.940;2022-12-17T04:53:41;97255.75;;;-3.69;94.61
36598;BME280;22607;49.550;11.940;2022-12-17T04:56:26;97255.25;;;-3.58;95.53
36598;BME280;22607;49.550;11.940;2022-12-17T04:59:11;97260.69;;;-3.64;94.51
36598;BME280;22607;49.550;11.940;2022-12-17T05:01:57;97274.72;;;-3.72;95.90
36598;BME280;22607;49.550;11.940;2022-12-17T05:04:43;97274.38;;;-3.83;95.20
36598;BME280;22607;49.550;11.940;2022-12-17T05:07:28;97274.53;;;-3.86;95.45
36598;BME280;22607;49.550;11.940;2022-12-17T05:10:13;97277.81;;;-4.02;96.92
36598;BME280;22607;49.550;11.940;2022-12-17T05:12:58;97285.91;;;-4.11;96.57
36598;BME280;22607;49.550;11.940;2022-12-17T05:15:44;97299.91;;;-4.18;96.75
36598;BME280;22607;49.550;11.940;2022-12-17T05:18:29;97303.13;;;-4.53;99.32
36598;BME280;22607;49.550;11.940;2022-12-17T05:21:15;97290.25;;;-4.52;97.41
36598;BME280;22607;49.550;11.940;2022-12-17T05:24:01;97311.78;;;-4.35;95.75
36598;BME280;22607;49.550;11.940;2022-12-17T05:26:46;97323.63;;;-4.53;96.41
36598;BME280;22607;49.550;11.940;2022-12-17T05:29:31;97322.31;;;-4.62;96.97
36598;BME280;22607;49.550;11.940;2022-12-17T05:32:16;97317.69;;;-4.75;96.61
36598;BME280;22607;49.550;11.940;2022-12-17T05:35:01;97331.84;;;-4.87;96.67
36598;BME280;22607;49.550;11.940;2022-12-17T05:37:51;97330.03;;;-4.83;96.09
36598;BME280;22607;49.550;11.940;2022-12-17T05:40:36;97330.31;;;-4.91;95.25
36598;BME280;22607;49.550;11.940;2022-12-17T05:43:21;97335.22;;;-5.07;95.97
36598;BME280;22607;49.550;11.940;2022-12-17T05:46:16;97345.47;;;-5.07;95.56
36598;BME280;22607;49.550;11.940;2022-12-17T05:49:02;97347.47;;;-5.14;95.86
36598;BME280;22607;49.550;11.940;2022-12-17T05:51:49;97350.47;;;-5.24;97.94
36598;BME280;22607;49.550;11.940;2022-12-17T05:54:34;97350.78;;;-5.32;96.95
36598;BME280;22607;49.550;11.940;2022-12-17T05:57:19;97360.00;;;-5.50;97.08
36598;BME280;22607;49.550;11.940;2022-12-17T06:00:04;97350.34;;;-5.66;98.59
36598;BME280;22607;49.550;11.940;2022-12-17T06:02:55;97351.06;;;-5.62;98.29
36598;BME280;22607;49.550;11.940;2022-12-17T06:05:40;97361.59;;;-5.70;99.02
36598;BME280;22607;49.550;11.940;2022-12-17T06:08:25;97364.03;;;-5.67;98.31
36598;BME280;22607;49.550;11.940;2022-12-17T06:11:11;97366.50;;;-5.88;97.89
36598;BME280;22607;49.550;11.940;2022-12-17T06:13:56;97371.50;;;-5.85;96.85
36598;BME280;22607;49.550;11.940;2022-12-17T06:16:41;97369.69;;;-6.05;97.82
36598;BME280;22607;49.550;11.940;2022-12-17T06:19:26;97380.63;;;-6.01;96.44
36598;BME280;22607;49.550;11.940;2022-12-17T06:22:11;97381.81;;;-6.10;95.65
36598;BME280;22607;49.550;11.940;2022-12-17T06:24:56;97382.88;;;-6.16;98.13
36598;BME280;22607;49.550;11.940;2022-12-17T06:27:48;97390.81;;;-6.24;97.66
36598;BME280;22607;49.550;11.940;2022-12-17T06:30:40;97398.22;;;-6.41;97.37
36598;BME280;22607;49.550;11.940;2022-12-17T06:33:26;97396.16;;;-6.55;97.03
36598;BME280;22607;49.550;11.940;2022-12-17T06:36:11;97397.03;;;-6.56;95.46
36598;BME280;22607;49.550;11.940;2022-12-17T06:38:56;97390.88;;;-6.51;95.43
36598;BME280;22607;49.550;11.940;2022-12-17T06:41:41;97402.84;;;-6.51;95.11
36598;BME280;22607;49.550;11.940;2022-12-17T06:44:30;97425.97;;;-6.56;97.03
36598;BME280;22607;49.550;11.940;2022-12-17T06:47:15;97427.44;;;-6.74;96.07
36598;BME280;22607;49.550;11.940;2022-12-17T06:50:00;97433.94;;;-6.65;94.44
36598;BME280;22607;49.550;11.940;2022-12-17T06:52:46;97432.16;;;-6.63;93.15
36598;BME280;22607;49.550;11.940;2022-12-17T06:55:32;97443.84;;;-6.81;93.25
36598;BME280;22607;49.550;11.940;2022-12-17T06:58:17;97451.44;;;-6.80;94.12
36598;BME280;22607;49.550;11.940;2022-12-17T07:01:02;97462.16;;;-7.24;96.38
36598;BME280;22607;49.550;11.940;2022-12-17T07:03:47;97462.25;;;-6.99;94.51
36598;BME280;22607;49.550;11.940;2022-12-17T07:10:02;97456.59;;;-6.81;93.46
36598;BME280;22607;49.550;11.940;2022-12-17T07:15:58;97474.28;;;-7.02;94.89
36598;BME280;22607;49.550;11.940;2022-12-17T07:21:52;97477.41;;;-6.94;92.94
36598;BME280;22607;49.550;11.940;2022-12-17T07:24:37;97487.47;;;-6.88;92.47
36598;BME280;22607;49.550;11.940;2022-12-17T07:27:32;97488.84;;;-7.06;91.30
36598;BME280;22607;49.550;11.940;2022-12-17T07:30:17;97503.34;;;-7.06;92.48
36598;BME280;22607;49.550;11.940;2022-12-17T07:33:05;97501.56;;;-7.04;90.81
36598;BME280;22607;49.550;11.940;2022-12-17T07:35:52;97496.06;;;-6.90;93.24
36598;BME280;22607;49.550;11.940;2022-12-17T07:38:40;97497.28;;;-6.75;93.29
36598;BME280;22607;49.550;11.940;2022-12-17T07:41:25;97501.59;;;-6.49;91.74
36598;BME280;22607;49.550;11.940;2022-12-17T07:44:11;97509.03;;;-5.66;88.42
36598;BME280;22607;49.550;11.940;2022-12-17T07:49:51;97515.50;;;-4.85;81.96
36598;BME280;22607;49.550;11.940;2022-12-17T07:52:38;97513.81;;;-4.21;77.15
36598;BME280;22607;49.550;11.940;2022-12-17T07:58:54;97526.41;;;-3.94;75.90
36598;BME280;22607;49.550;11.940;2022-12-17T08:01:45;97522.94;;;-3.72;73.57
36598;BME280;22607;49.550;11.940;2022-12-17T08:04:31;97523.59;;;-2.90;72.24
36598;BME280;22607;49.550;11.940;2022-12-17T08:07:18;97532.84;;;-3.24;72.53
36598;BME280;22607;49.550;11.940;2022-12-17T08:10:11;97536.81;;;-2.42;71.37
36598;BME280;22607;49.550;11.940;2022-12-17T08:16:24;97531.94;;;-1.42;66.34
36598;BME280;22607;49.550;11.940;2022-12-17T08:22:40;97549.84;;;-1.07;63.62
36598;BME280;22607;49.550;11.940;2022-12-17T08:25:31;97550.72;;;-0.90;63.50
36598;BME280;22607;49.550;11.940;2022-12-17T08:28:30;97550.78;;;-0.75;61.39
36598;BME280;22607;49.550;11.940;2022-12-17T08:31:16;97555.38;;;-0.48;61.91
36598;BME280;22607;49.550;11.940;2022-12-17T08:34:09;97563.47;;;-0.24;60.57
36598;BME280;22607;49.550;11.940;2022-12-17T08:49:39;97573.16;;;0.63;57.51
36598;BME280;22607;49.550;11.940;2022-12-17T08:52:25;97566.16;;;0.80;57.72
36598;BME280;22607;49.550;11.940;2022-12-17T08:55:09;97564.94;;;1.14;56.30
36598;BME280;22607;49.550;11.940;2022-12-17T08:57:55;97559.78;;;1.42;54.99
36598;BME280;22607;49.550;11.940;2022-12-17T09:06:42;97562.97;;;1.88;54.91
36598;BME280;22607;49.550;11.940;2022-12-17T09:09:27;97565.03;;;1.55;54.07
36598;BME280;22607;49.550;11.940;2022-12-17T09:12:12;97572.69;;;2.25;53.61
36598;BME280;22607;49.550;11.940;2022-12-17T09:18:25;97567.19;;;2.29;52.57
36598;BME280;22607;49.550;11.940;2022-12-17T09:24:14;97570.03;;;1.86;52.80
36598;BME280;22607;49.550;11.940;2022-12-17T09:30:21;97577.78;;;1.86;53.38
36598;BME280;22607;49.550;11.940;2022-12-17T09:33:07;97583.38;;;2.33;52.57
36598;BME280;22607;49.550;11.940;2022-12-17T09:35:53;97581.31;;;2.77;51.76
36598;BME280;22607;49.550;11.940;2022-12-17T09:51:55;97603.97;;;3.51;49.84
36598;BME280;22607;49.550;11.940;2022-12-17T09:54:55;97596.44;;;4.09;49.83
36598;BME280;22607;49.550;11.940;2022-12-17T09:57:52;97604.84;;;4.12;48.75
36598;BME280;22607;49.550;11.940;2022-12-17T10:03:44;97607.84;;;3.20;49.00
36598;BME280;22607;49.550;11.940;2022-12-17T10:06:29;97600.69;;;3.23;49.02
36598;BME280;22607;49.550;11.940;2022-12-17T10:12:42;97598.97;;;3.48;49.70
36598;BME280;22607;49.550;11.940;2022-12-17T10:15:27;97598.75;;;3.76;48.94
36598;BME280;22607;49.550;11.940;2022-12-17T10:21:33;97607.69;;;2.97;49.72
36598;BME280;22607;49.550;11.940;2022-12-17T10:24:21;97605.91;;;3.48;49.63
36598;BME280;22607;49.550;11.940;2022-12-17T10:27:09;97601.53;;;3.86;48.37
36598;BME280;22607;49.550;11.940;2022-12-17T10:29:56;97605.19;;;3.83;48.39
36598;BME280;22607;49.550;11.940;2022-12-17T10:33:03;97596.13;;;3.89;49.27
36598;BME280;22607;49.550;11.940;2022-12-17T10:38:39;97593.66;;;3.99;47.26
36598;BME280;22607;49.550;11.940;2022-12-17T10:41:25;97593.06;;;4.19;48.19
36598;BME280;22607;49.550;11.940;2022-12-17T10:47:25;97601.94;;;4.28;48.17
36598;BME280;22607;49.550;11.940;2022-12-17T10:50:22;97603.59;;;4.65;47.92
36598;BME280;22607;49.550;11.940;2022-12-17T10:53:25;97613.38;;;4.14;48.49
36598;BME280;22607;49.550;11.940;2022-12-17T10:56:24;97615.94;;;3.28;50.72
36598;BME280;22607;49.550;11.940;2022-12-17T10:59:10;97628.63;;;3.20;50.70
36598;BME280;22607;49.550;11.940;2022-12-17T11:01:57;97622.78;;;3.29;50.78
36598;BME280;22607;49.550;11.940;2022-12-17T11:04:50;97616.84;;;4.02;50.08
36598;BME280;22607;49.550;11.940;2022-12-17T11:07:36;97623.44;;;3.70;51.09
36598;BME280;22607;49.550;11.940;2022-12-17T11:10:31;97632.81;;;3.60;51.09
36598;BME280;22607;49.550;11.940;2022-12-17T11:19:29;97637.16;;;3.22;51.22
36598;BME280;22607;49.550;11.940;2022-12-17T11:22:20;97640.88;;;3.44;51.49
36598;BME280;22607;49.550;11.940;2022-12-17T11:28:35;97637.34;;;3.19;51.87
36598;BME280;22607;49.550;11.940;2022-12-17T11:37:38;97646.97;;;2.52;53.50
36598;BME280;22607;49.550;11.940;2022-12-17T11:40:47;97650.03;;;2.84;53.02
36598;BME280;22607;49.550;11.940;2022-12-17T11:46:50;97641.50;;;2.82;52.72
36598;BME280;22607;49.550;11.940;2022-12-17T11:58:52;97632.59;;;2.99;53.37
36598;BME280;22607;49.550;11.940;2022-12-17T12:01:52;97629.28;;;2.97;53.61
36598;BME280;22607;49.550;11.940;2022-12-17T12:17:28;97645.72;;;2.31;55.59
36598;BME280;22607;49.550;11.940;2022-12-17T12:30:21;97643.28;;;2.15;57.05
36598;BME280;22607;49.550;11.940;2022-12-17T12:36:31;97652.38;;;2.08;57.14
36598;BME280;22607;49.550;11.940;2022-12-17T12:39:19;97655.56;;;1.99;57.88
36598;BME280;22607;49.550;11.940;2022-12-17T12:54:52;97663.16;;;1.45;59.27
36598;BME280;22607;49.550;11.940;2022-12-17T13:01:30;97664.34;;;1.54;59.15
36598;BME280;22607;49.550;11.940;2022-12-17T13:04:34;97671.56;;;1.34;60.05
36598;BME280;22607;49.550;11.940;2022-12-17T13:10:49;97669.91;;;1.48;59.91
36598;BME280;22607;49.550;11.940;2022-12-17T13:15:44;97674.16;;;1.49;59.59
36598;BME280;22607;49.550;11.940;2022-12-17T13:33:30;97678.88;;;1.27;60.79
36598;BME280;22607;49.550;11.940;2022-12-17T13:44:43;97698.38;;;0.89;62.74
36598;BME280;22607;49.550;11.940;2022-12-17T13:47:18;97694.03;;;1.04;62.40
36598;BME280;22607;49.550;11.940;2022-12-17T13:53:07;97702.47;;;1.08;62.86
36598;BME280;22607;49.550;11.940;2022-12-17T13:55:34;97704.91;;;0.95;62.88
36598;BME280;22607;49.550;11.940;2022-12-17T13:58:00;97716.16;;;0.80;64.15
36598;BME280;22607;49.550;11.940;2022-12-17T14:00:27;97724.38;;;0.72;64.73
36598;BME280;22607;49.550;11.940;2022-12-17T14:02:54;97725.53;;;0.66;65.80
36598;BME280;22607;49.550;11.940;2022-12-17T14:05:23;97727.66;;;0.59;65.17
36598;BME280;22607;49.550;11.940;2022-12-17T14:07:50;97725.66;;;0.48;65.06
36598;BME280;22607;49.550;11.940;2022-12-17T14:13:40;97736.22;;;0.13;66.83
36598;BME280;22607;49.550;11.940;2022-12-17T14:16:06;97741.41;;;0.13;67.30
36598;BME280;22607;49.550;11.940;2022-12-17T14:18:33;97743.88;;;0.31;68.75
36598;BME280;22607;49.550;11.940;2022-12-17T14:24:23;97745.41;;;0.03;70.34
36598;BME280;22607;49.550;11.940;2022-12-17T14:26:58;97743.03;;;-0.18;71.14
36598;BME280;22607;49.550;11.940;2022-12-17T14:29:43;97755.78;;;-0.31;72.68
36598;BME280;22607;49.550;11.940;2022-12-17T14:32:32;97760.53;;;-0.57;73.53
36598;BME280;22607;49.550;11.940;2022-12-17T14:34:59;97762.22;;;-0.56;75.10
36598;BME280;22607;49.550;11.940;2022-12-17T14:37:35;97766.09;;;-0.65;74.98
36598;BME280;22607;49.550;11.940;2022-12-17T14:40:02;97765.03;;;-0.61;75.07
36598;BME280;22607;49.550;11.940;2022-12-17T14:42:29;97767.69;;;-0.62;75.41
36598;BME280;22607;49.550;11.940;2022-12-17T14:48:12;97770.53;;;-0.85;76.84
36598;BME280;22607;49.550;11.940;2022-12-17T14:50:55;97770.75;;;-0.89;76.98
36598;BME280;22607;49.550;11.940;2022-12-17T14:53:36;97771.06;;;-0.96;77.09
36598;BME280;22607;49.550;11.940;2022-12-17T14:59:04;97774.00;;;-1.39;80.40
36598;BME280;22607;49.550;11.940;2022-12-17T15:01:41;97777.88;;;-1.48;80.00
36598;BME280;22607;49.550;11.940;2022-12-17T15:04:08;97784.94;;;-1.70;79.50
36598;BME280;22607;49.550;11.940;2022-12-17T15:10:07;97798.09;;;-2.15;83.07
36598;BME280;22607;49.550;11.940;2022-12-17T15:12:35;97803.22;;;-2.34;84.58
36598;BME280;22607;49.550;11.940;2022-12-17T15:15:01;97804.94;;;-2.54;86.75
36598;BME280;22607;49.550;11.940;2022-12-17T15:17:27;97804.84;;;-2.53;86.14
36598;BME280;22607;49.550;11.940;2022-12-17T15:19:54;97809.75;;;-2.46;85.23
36598;BME280;22607;49.550;11.940;2022-12-17T15:22:21;97812.97;;;-2.62;84.83
36598;BME280;22607;49.550;11.940;2022-12-17T15:24:48;97813.03;;;-2.84;86.82
36598;BME280;22607;49.550;11.940;2022-12-17T15:27:15;97818.19;;;-3.05;88.19
36598;BME280;22607;49.550;11.940;2022-12-17T15:29:44;97823.50;;;-3.10;87.28
36598;BME280;22607;49.550;11.940;2022-12-17T15:32:18;97813.91;;;-3.06;86.42
36598;BME280;22607;49.550;11.940;2022-12-17T15:34:45;97831.81;;;-3.25;85.55
36598;BME280;22607;49.550;11.940;2022-12-17T15:37:12;97831.34;;;-3.35;87.45
36598;BME280;22607;49.550;11.940;2022-12-17T15:39:38;97822.63;;;-3.53;90.77
36598;BME280;22607;49.550;11.940;2022-12-17T15:42:05;97823.28;;;-3.71;90.70
36598;BME280;22607;49.550;11.940;2022-12-17T15:45:07;97832.94;;;-3.77;89.70
36598;BME280;22607;49.550;11.940;2022-12-17T15:47:42;97830.69;;;-3.85;93.17
36598;BME280;22607;49.550;11.940;2022-12-17T15:52:58;97835.78;;;-4.09;97.17
36598;BME280;22607;49.550;11.940;2022-12-17T15:55:25;97827.75;;;-4.00;94.52
36598;BME280;22607;49.550;11.940;2022-12-17T15:57:51;97834.63;;;-4.24;94.67
36598;BME280;22607;49.550;11.940;2022-12-17T16:06:50;97836.34;;;-4.25;90.80
36598;BME280;22607;49.550;11.940;2022-12-17T16:12:44;97823.81;;;-4.58;88.48
36598;BME280;22607;49.550;11.940;2022-12-17T16:15:11;97829.91;;;-4.86;92.83
36598;BME280;22607;49.550;11.940;2022-12-17T16:20:23;97835.47;;;-5.00;93.00
36598;BME280;22607;49.550;11.940;2022-12-17T16:22:50;97838.84;;;-4.72;90.37
36598;BME280;22607;49.550;11.940;2022-12-17T16:28:32;97834.53;;;-4.97;88.13
36598;BME280;22607;49.550;11.940;2022-12-17T16:31:02;97852.72;;;-5.05;90.15
36598;BME280;22607;49.550;11.940;2022-12-17T16:36:29;97856.00;;;-5.29;93.68
36598;BME280;22607;49.550;11.940;2022-12-17T16:38:55;97855.16;;;-5.29;93.28
36598;BME280;22607;49.550;11.940;2022-12-17T16:41:26;97860.19;;;-5.55;95.50
36598;BME280;22607;49.550;11.940;2022-12-17T16:43:52;97863.69;;;-5.29;92.24
36598;BME280;22607;49.550;11.940;2022-12-17T16:46:26;97863.00;;;-5.34;93.23
36598;BME280;22607;49.550;11.940;2022-12-17T16:51:48;97872.59;;;-5.41;94.11
36598;BME280;22607;49.550;11.940;2022-12-17T16:57:07;97874.47;;;-5.46;92.06
36598;BME280;22607;49.550;11.940;2022-12-17T16:59:34;97877.16;;;-6.09;93.52
36598;BME280;22607;49.550;11.940;2022-12-17T17:02:00;97874.13;;;-5.94;92.49
36598;BME280;22607;49.550;11.940;2022-12-17T17:04:28;97883.66;;;-6.29;95.91
36598;BME280;22607;49.550;11.940;2022-12-17T17:06:55;97878.28;;;-6.20;93.65
36598;BME280;22607;49.550;11.940;2022-12-17T17:18:11;97893.03;;;-6.29;91.99
36598;BME280;22607;49.550;11.940;2022-12-17T17:20:37;97895.25;;;-6.49;94.14
36598;BME280;22607;49.550;11.940;2022-12-17T17:23:04;97914.22;;;-6.94;98.35
36598;BME280;22607;49.550;11.940;2022-12-17T17:28:39;97915.56;;;-6.79;97.25
36598;BME280;22607;49.550;11.940;2022-12-17T17:31:19;97916.53;;;-6.85;95.49
36598;BME280;22607;49.550;11.940;2022-12-17T17:33:47;97910.84;;;-7.32;97.76
36598;BME280;22607;49.550;11.940;2022-12-17T17:36:15;97920.25;;;-7.34;99.88
36598;BME280;22607;49.550;11.940;2022-12-17T17:38:42;97917.56;;;-7.28;98.81
36598;BME280;22607;49.550;11.940;2022-12-17T17:41:10;97916.97;;;-7.40;97.45
36598;BME280;22607;49.550;11.940;2022-12-17T17:46:33;97916.44;;;-7.16;94.66
36598;BME280;22607;49.550;11.940;2022-12-17T17:49:01;97920.13;;;-6.92;89.97
36598;BME280;22607;49.550;11.940;2022-12-17T17:51:34;97919.91;;;-7.19;91.95
36598;BME280;22607;49.550;11.940;2022-12-17T18:00:38;97925.34;;;-7.34;94.17
36598;BME280;22607;49.550;11.940;2022-12-17T18:03:04;97929.06;;;-7.49;94.71
36598;BME280;22607;49.550;11.940;2022-12-17T18:05:37;97924.22;;;-7.62;95.95
36598;BME280;22607;49.550;11.940;2022-12-17T18:08:07;97928.19;;;-7.89;97.83
36598;BME280;22607;49.550;11.940;2022-12-17T18:13:35;97938.56;;;-7.99;96.33
36598;BME280;22607;49.550;11.940;2022-12-17T18:19:20;97947.88;;;-7.98;95.34
36598;BME280;22607;49.550;11.940;2022-12-17T18:21:48;97949.72;;;-8.06;96.16
36598;BME280;22607;49.550;11.940;2022-12-17T18:27:16;97953.63;;;-8.32;97.23
36598;BME280;22607;49.550;11.940;2022-12-17T18:29:42;97952.16;;;-7.98;94.38
36598;BME280;22607;49.550;11.940;2022-12-17T18:32:11;97956.44;;;-8.00;92.83
36598;BME280;22607;49.550;11.940;2022-12-17T18:34:37;97964.78;;;-8.41;95.36
36598;BME280;22607;49.550;11.940;2022-12-17T18:37:03;97971.44;;;-8.31;95.86
36598;BME280;22607;49.550;11.940;2022-12-17T18:39:30;97977.66;;;-8.47;95.74
36598;BME280;22607;49.550;11.940;2022-12-17T18:41:56;97964.59;;;-8.30;94.08
36598;BME280;22607;49.550;11.940;2022-12-17T18:44:56;97960.00;;;-8.09;92.60
36598;BME280;22607;49.550;11.940;2022-12-17T18:47:22;97960.38;;;-8.30;93.24
36598;BME280;22607;49.550;11.940;2022-12-17T18:52:47;97970.47;;;-8.26;93.57
36598;BME280;22607;49.550;11.940;2022-12-17T18:55:28;97969.06;;;-8.41;94.21
36598;BME280;22607;49.550;11.940;2022-12-17T18:57:56;97972.06;;;-8.68;94.74
36598;BME280;22607;49.550;11.940;2022-12-17T19:00:27;97975.88;;;-8.44;92.58
36598;BME280;22607;49.550;11.940;2022-12-17T19:02:54;97976.91;;;-8.52;92.55
36598;BME280;22607;49.550;11.940;2022-12-17T19:05:28;97981.44;;;-8.70;94.36
36598;BME280;22607;49.550;11.940;2022-12-17T19:07:55;97979.81;;;-8.76;95.12